createdAt,value
2019-03-20T00:00:31.275Z,3.38
2019-03-20T00:05:31.278Z,3.44
2019-03-20T00:10:31.270Z,3.56
2019-03-20T00:15:31.278Z,3.63
2019-03-20T00:20:31.279Z,3.69
2019-03-20T00:25:31.298Z,3.75
2019-03-20T00:30:31.291Z,3.75
2019-03-20T00:35:31.292Z,3.75
2019-03-20T00:40:31.308Z,3.75
2019-03-20T00:45:31.294Z,3.75
2019-03-20T00:50:31.291Z,3.69
2019-03-20T00:55:31.316Z,3.63
2019-03-20T01:00:31.300Z,3.63
2019-03-20T01:05:31.347Z,3.44
2019-03-20T01:10:31.336Z,3.38
2019-03-20T01:15:31.307Z,3.25
2019-03-20T01:20:31.302Z,3.06
2019-03-20T01:25:31.323Z,2.94
2019-03-20T01:30:31.315Z,2.88
2019-03-20T01:35:31.326Z,2.75
2019-03-20T01:40:31.323Z,2.75
2019-03-20T01:45:31.332Z,2.56
2019-03-20T01:50:31.318Z,2.56
2019-03-20T01:55:31.324Z,2.5
2019-03-20T02:00:31.371Z,2.5
2019-03-20T02:05:36.058Z,2.44
2019-03-20T02:10:31.329Z,2.38
2019-03-20T02:15:38.484Z,2.31
2019-03-20T02:20:31.336Z,2.25
2019-03-20T02:25:32.458Z,2.19
2019-03-20T02:30:31.367Z,2.19
2019-03-20T02:35:31.343Z,2.13
2019-03-20T02:40:31.348Z,2.13
2019-03-20T02:45:31.365Z,2
2019-03-20T02:50:31.345Z,1.94
2019-03-20T02:55:31.341Z,1.88
2019-03-20T03:00:31.406Z,1.75
2019-03-20T03:05:31.353Z,1.63
2019-03-20T03:10:31.356Z,1.63
2019-03-20T03:15:31.396Z,1.56
2019-03-20T03:20:31.383Z,1.5
2019-03-20T03:25:31.374Z,1.38
2019-03-20T03:30:31.375Z,1.38
2019-03-20T03:35:31.381Z,1.31
2019-03-20T03:40:31.380Z,1.31
2019-03-20T03:45:31.386Z,1.31
2019-03-20T03:50:31.397Z,1.25
2019-03-20T03:55:31.386Z,1.19
2019-03-20T04:00:31.424Z,1.13
2019-03-20T04:05:31.404Z,1.13
2019-03-20T04:10:31.376Z,1.13
2019-03-20T04:15:31.374Z,1.13
2019-03-20T04:20:31.385Z,1.13
2019-03-20T04:25:31.404Z,1.19
2019-03-20T04:30:31.459Z,1.25
2019-03-20T04:35:31.402Z,1.25
2019-03-20T04:40:31.393Z,1.19
2019-03-20T04:45:31.435Z,1.06
2019-03-20T04:50:31.416Z,1
2019-03-20T04:55:31.404Z,1
2019-03-20T05:00:31.405Z,0.94
2019-03-20T05:05:31.399Z,0.94
2019-03-20T05:10:31.406Z,0.94
2019-03-20T05:15:31.406Z,0.94
2019-03-20T05:20:31.419Z,0.94
2019-03-20T05:25:31.417Z,1
2019-03-20T05:30:31.465Z,1.19
2019-03-20T05:35:31.418Z,1.75
2019-03-20T05:40:31.423Z,2.38
2019-03-20T05:45:31.436Z,2.94
2019-03-20T05:50:31.433Z,2.38
2019-03-20T05:55:31.443Z,2
2019-03-20T06:00:31.446Z,1.81
2019-03-20T06:05:31.422Z,1.81
2019-03-20T06:10:31.448Z,1.88
2019-03-20T06:15:31.460Z,1.94
2019-03-20T06:20:33.683Z,2.06
2019-03-20T06:25:31.447Z,2.31
2019-03-20T06:30:31.471Z,2.44
2019-03-20T06:35:31.440Z,2.63
2019-03-20T06:40:31.494Z,2.81
2019-03-20T06:45:31.447Z,6.69
2019-03-20T06:50:31.450Z,8.06
2019-03-20T06:55:31.450Z,8.56
2019-03-20T07:00:31.567Z,9.13
2019-03-20T07:05:31.454Z,8.5
2019-03-20T07:10:31.456Z,8.38
2019-03-20T07:15:31.470Z,8.69
2019-03-20T07:20:31.464Z,8.56
2019-03-20T07:25:31.467Z,8.56
2019-03-20T07:30:31.466Z,8.06
2019-03-20T07:35:31.464Z,7.94
2019-03-20T07:40:31.478Z,7.88
2019-03-20T07:45:31.481Z,7.56
2019-03-20T07:50:31.473Z,7.88
2019-03-20T07:55:31.489Z,7.94
2019-03-20T08:00:31.513Z,8.06
2019-03-20T08:05:31.485Z,8.38
2019-03-20T08:10:31.483Z,8.13
2019-03-20T08:15:31.553Z,8.19
2019-03-20T08:20:31.482Z,8.31
2019-03-20T08:25:31.524Z,8.88
2019-03-20T08:30:31.529Z,9.31
2019-03-20T08:35:31.490Z,9.44
2019-03-20T08:40:31.494Z,9.38
2019-03-20T08:45:31.522Z,9.56
2019-03-20T08:50:31.511Z,9.63
2019-03-20T08:55:31.500Z,10.06
2019-03-20T09:00:31.537Z,10.06
2019-03-20T09:05:31.504Z,10.13
2019-03-20T09:10:31.509Z,10.19
2019-03-20T09:15:31.526Z,10.38
2019-03-20T09:20:31.506Z,10.5
2019-03-20T09:25:31.520Z,10.25
2019-03-20T09:30:31.517Z,10.06
2019-03-20T09:35:31.516Z,10.13
2019-03-20T09:40:31.533Z,10.31
2019-03-20T09:45:31.534Z,10.69
2019-03-20T09:50:31.502Z,10.81
2019-03-20T09:55:31.522Z,10.88
2019-03-20T10:00:31.563Z,11
2019-03-20T10:05:31.564Z,11.31
2019-03-20T10:10:31.530Z,11
2019-03-20T10:15:31.658Z,11.13
2019-03-20T10:20:31.538Z,11.25
2019-03-20T10:25:31.540Z,11.56
2019-03-20T10:30:31.572Z,11.56
2019-03-20T10:35:31.541Z,11.38
2019-03-20T10:40:31.567Z,11.69
2019-03-20T10:45:31.601Z,11.88
2019-03-20T10:50:31.572Z,12
2019-03-20T10:55:31.557Z,12.31
2019-03-20T11:00:31.573Z,12.81
2019-03-20T11:05:31.563Z,12.19
2019-03-20T11:10:31.563Z,12.25
2019-03-20T11:15:31.574Z,12.19
2019-03-20T11:20:31.565Z,12.44
2019-03-20T11:25:31.577Z,12.56
2019-03-20T11:30:31.610Z,12.5
2019-03-20T11:35:31.591Z,12.94
2019-03-20T11:40:31.635Z,13.13
2019-03-20T11:45:31.620Z,12.81
2019-03-20T11:50:31.578Z,13.31
2019-03-20T11:55:31.603Z,13.25
2019-03-20T12:00:31.625Z,12.94
2019-03-20T12:05:31.585Z,12.75
2019-03-20T12:10:31.583Z,12.63
2019-03-20T12:15:31.658Z,12.44
2019-03-20T12:20:31.590Z,12.69
2019-03-20T12:25:31.615Z,12.63
2019-03-20T12:30:31.594Z,12.5
2019-03-20T12:35:31.616Z,12.19
2019-03-20T12:40:31.600Z,12.19
2019-03-20T12:45:31.629Z,11.88
2019-03-20T12:50:31.605Z,12.19
2019-03-20T12:55:31.642Z,12.25
2019-03-20T13:00:31.615Z,12.25
2019-03-20T13:05:31.618Z,12.5
2019-03-20T13:10:31.615Z,12.38
2019-03-20T13:15:33.372Z,12.31
2019-03-20T13:20:31.625Z,12.38
2019-03-20T13:25:31.620Z,12.13
2019-03-20T13:30:31.643Z,12.06
2019-03-20T13:35:31.638Z,12.13
2019-03-20T13:40:31.634Z,12.31
2019-03-20T13:45:31.632Z,12.31
2019-03-20T13:50:31.639Z,12.31
2019-03-20T13:55:31.632Z,12.25
2019-03-20T14:00:31.664Z,12.19
2019-03-20T14:05:31.699Z,12.25
2019-03-20T14:10:31.665Z,12.31
2019-03-20T14:15:31.670Z,12.31
2019-03-20T14:20:31.639Z,12.31
2019-03-20T14:25:31.647Z,12.25
2019-03-20T14:30:31.694Z,12.25
2019-03-20T14:35:31.648Z,12.44
2019-03-20T14:40:35.960Z,12.38
2019-03-20T14:45:31.656Z,12.31
2019-03-20T14:50:31.658Z,12.31
2019-03-20T14:55:31.655Z,12.31
2019-03-20T15:00:31.730Z,12.25
2019-03-20T15:05:31.667Z,12.13
2019-03-20T15:10:31.663Z,12.19
2019-03-20T15:15:31.701Z,12.13
2019-03-20T15:20:31.671Z,12.06
2019-03-20T15:25:31.673Z,12.13
2019-03-20T15:30:31.684Z,12
2019-03-20T15:35:31.675Z,12
2019-03-20T15:40:31.676Z,11.94
2019-03-20T15:45:31.694Z,11.94
2019-03-20T15:50:31.678Z,11.94
2019-03-20T15:55:31.685Z,11.94
2019-03-20T16:00:31.684Z,11.94
2019-03-20T16:05:31.804Z,11.81
2019-03-20T16:10:31.689Z,11.75
2019-03-20T16:15:31.716Z,11.69
2019-03-20T16:20:31.696Z,11.63
2019-03-20T16:25:31.700Z,11.63
2019-03-20T16:30:31.711Z,11.56
2019-03-20T16:35:31.710Z,11.56
2019-03-20T16:40:31.709Z,11.56
2019-03-20T16:45:31.715Z,11.5
2019-03-20T16:50:31.710Z,11.44
2019-03-20T16:55:31.709Z,11.31
2019-03-20T17:00:31.721Z,11.31
2019-03-20T17:05:31.720Z,11.13
2019-03-20T17:10:31.717Z,11
2019-03-20T17:15:31.752Z,10.94
2019-03-20T17:20:31.723Z,10.88
2019-03-20T17:25:31.724Z,10.69
2019-03-20T17:30:31.757Z,10.63
2019-03-20T17:35:31.726Z,10.63
2019-03-20T17:40:31.723Z,10.5
2019-03-20T17:45:31.731Z,10.25
2019-03-20T17:50:31.767Z,10.25
2019-03-20T17:55:31.744Z,10.19
2019-03-20T18:00:31.796Z,10.13
2019-03-20T18:05:31.748Z,9.94
2019-03-20T18:10:33.231Z,9.81
2019-03-20T18:15:31.808Z,9.75
2019-03-20T18:20:31.767Z,9.69
2019-03-20T18:25:31.752Z,9.63
2019-03-20T18:30:31.798Z,9.56
2019-03-20T18:35:31.752Z,9.5
2019-03-20T18:40:31.755Z,9.38
2019-03-20T18:45:31.785Z,9.25
2019-03-20T18:50:31.757Z,9.19
2019-03-20T18:55:31.762Z,9.13
2019-03-20T19:00:31.780Z,9.06
2019-03-20T19:05:31.765Z,8.88
2019-03-20T19:10:31.776Z,8.81
2019-03-20T19:15:31.802Z,8.88
2019-03-20T19:20:31.802Z,8.88
2019-03-20T19:25:31.809Z,8.88
2019-03-20T19:30:31.806Z,8.81
2019-03-20T19:35:31.813Z,8.75
2019-03-20T19:40:31.782Z,8.69
2019-03-20T19:45:31.832Z,8.69
2019-03-20T19:50:31.798Z,8.75
2019-03-20T19:55:31.790Z,8.75
2019-03-20T20:00:31.814Z,8.69
2019-03-20T20:05:31.790Z,8.63
2019-03-20T20:10:31.788Z,8.56
2019-03-20T20:15:31.812Z,8.56
2019-03-20T20:20:31.803Z,8.56
2019-03-20T20:25:31.800Z,8.56
2019-03-20T20:30:31.805Z,8.56
2019-03-20T20:35:31.811Z,8.56
2019-03-20T20:40:31.808Z,8.5
2019-03-20T20:45:31.835Z,8.56
2019-03-20T20:50:31.812Z,8.56
2019-03-20T20:55:31.809Z,8.5
2019-03-20T21:00:31.843Z,8.5
2019-03-20T21:05:31.813Z,8.5
2019-03-20T21:10:31.816Z,8.44
2019-03-20T21:15:31.840Z,8.38
2019-03-20T21:20:31.826Z,8.31
2019-03-20T21:25:31.832Z,8.13
2019-03-20T21:30:31.866Z,8
2019-03-20T21:35:31.841Z,7.94
2019-03-20T21:40:31.834Z,7.88
2019-03-20T21:45:31.851Z,7.75
2019-03-20T21:50:31.845Z,7.69
2019-03-20T21:55:31.835Z,7.63
2019-03-20T22:00:31.879Z,7.56
2019-03-20T22:05:31.849Z,7.56
2019-03-20T22:10:31.841Z,7.63
2019-03-20T22:15:31.852Z,7.69
2019-03-20T22:20:31.852Z,7.75
2019-03-20T22:25:31.854Z,7.81
2019-03-20T22:30:31.864Z,7.81
2019-03-20T22:35:31.853Z,7.81
2019-03-20T22:40:31.865Z,7.88
2019-03-20T22:45:31.862Z,7.88
2019-03-20T22:50:31.862Z,7.88
2019-03-20T22:55:31.871Z,7.94
2019-03-20T23:00:31.902Z,7.94
2019-03-20T23:05:31.876Z,7.94
2019-03-20T23:10:31.866Z,7.94
2019-03-20T23:15:31.879Z,7.88
2019-03-20T23:20:31.873Z,7.88
2019-03-20T23:25:31.882Z,7.88
2019-03-20T23:30:31.923Z,7.81
2019-03-20T23:35:31.892Z,7.81
2019-03-20T23:40:31.883Z,7.81
2019-03-20T23:45:31.902Z,7.81
2019-03-20T23:50:31.889Z,7.81
2019-03-20T23:55:31.894Z,7.81
